Time;durP1;ratioP1;P1;durP2;ratioP2;P2;SDS_P1;SDS_P2;PMS_P1;PMS_P2;Temp;Humidity;BMP_temperature;BMP_pressure;BME280_temperature;BME280_humidity;BME280_pressure;Samples;Min_cycle;Max_cycle;Signal;HPM_P1;HPM_P2
2023/10/31 00:01:46;;;;;;;8.70;2.30;;;9.40;99.90;;;;;;5075291;28;20045;-25
2023/10/31 00:04:12;;;;;;;8.75;2.92;;;9.40;99.90;;;;;;5075190;28;20048;-25
2023/10/31 00:06:38;;;;;;;8.75;3.30;;;9.40;99.90;;;;;;5073912;28;20502;-26
2023/10/31 00:09:03;;;;;;;7.72;3.30;;;9.30;99.90;;;;;;5073616;28;20059;-25
2023/10/31 00:11:29;;;;;;;8.40;2.60;;;9.40;99.90;;;;;;5074962;28;20045;-26
2023/10/31 00:13:55;;;;;;;8.50;2.72;;;9.30;99.90;;;;;;5075077;28;20063;-26
2023/10/31 00:16:21;;;;;;;8.38;3.08;;;9.30;99.90;;;;;;5073747;28;20048;-25
2023/10/31 00:18:46;;;;;;;14.60;4.05;;;9.30;99.90;;;;;;5074869;28;20052;-25
2023/10/31 00:21:12;;;;;;;19.35;4.43;;;9.30;99.90;;;;;;5075332;28;20056;-25
2023/10/31 00:23:45;;;;;;;9.60;4.63;;;9.50;99.90;;;;;;5073750;28;20502;-24
2023/10/31 00:26:11;;;;;;;20.13;4.57;;;9.50;99.90;;;;;;5074781;28;20123;-24
2023/10/31 00:28:36;;;;;;;13.02;4.57;;;9.50;99.90;;;;;;5074658;28;20144;-23
2023/10/31 00:31:03;;;;;;;12.55;3.92;;;9.40;99.90;;;;;;5074656;28;20494;-22
2023/10/31 00:33:29;;;;;;;16.65;5.05;;;9.40;99.90;;;;;;5074311;28;20510;-22
2023/10/31 00:35:55;;;;;;;16.27;4.50;;;9.60;99.90;;;;;;5074267;28;20529;-22
2023/10/31 00:38:21;;;;;;;13.82;4.40;;;9.50;99.90;;;;;;5075017;28;20040;-22
2023/10/31 00:40:47;;;;;;;14.85;5.40;;;9.60;99.90;;;;;;5073279;28;20051;-22
2023/10/31 00:43:13;;;;;;;15.38;5.15;;;9.40;99.90;;;;;;5074695;28;20156;-21
2023/10/31 00:45:38;;;;;;;16.10;4.28;;;9.40;99.90;;;;;;5074059;28;20490;-22
2023/10/31 00:48:04;;;;;;;11.32;3.97;;;9.60;99.90;;;;;;5074299;28;20056;-22
2023/10/31 00:50:30;;;;;;;15.40;3.95;;;9.40;99.90;;;;;;5074813;28;20052;-22
2023/10/31 00:52:56;;;;;;;13.43;3.45;;;9.40;99.90;;;;;;5074767;28;20079;-22
2023/10/31 00:55:22;;;;;;;12.77;3.35;;;9.30;99.90;;;;;;5073515;28;20040;-22
2023/10/31 00:57:47;;;;;;;17.75;2.92;;;9.40;99.90;;;;;;5074162;28;20046;-21
2023/10/31 01:00:13;;;;;;;12.40;2.53;;;9.50;99.90;;;;;;5073005;28;20045;-21
2023/10/31 01:02:39;;;;;;;9.43;2.38;;;9.40;99.90;;;;;;5074105;28;20040;-21
2023/10/31 01:05:05;;;;;;;13.10;2.63;;;9.40;99.90;;;;;;5074008;28;20055;-21
2023/10/31 01:07:31;;;;;;;16.73;2.30;;;9.50;99.90;;;;;;5073998;28;20055;-20
2023/10/31 01:09:57;;;;;;;12.40;2.33;;;9.30;99.90;;;;;;5056258;28;20118;-20
2023/10/31 01:12:23;;;;;;;7.45;1.33;;;9.30;99.90;;;;;;5074451;28;20044;-20
2023/10/31 01:14:48;;;;;;;9.15;1.50;;;9.30;99.90;;;;;;5072205;28;20048;-21
2023/10/31 01:17:14;;;;;;;11.32;2.63;;;9.40;99.90;;;;;;5074362;28;20083;-21
2023/10/31 01:19:40;;;;;;;8.70;2.88;;;9.40;99.90;;;;;;5073831;28;20041;-21
2023/10/31 01:22:07;;;;;;;9.48;2.50;;;9.40;99.90;;;;;;5073817;28;20134;-20
2023/10/31 01:24:33;;;;;;;11.52;3.25;;;9.20;99.90;;;;;;5073802;28;20048;-21
2023/10/31 01:26:58;;;;;;;5.97;2.50;;;9.40;99.90;;;;;;5073472;28;20179;-21
2023/10/31 01:29:24;;;;;;;14.10;3.15;;;9.30;99.90;;;;;;5073733;28;20048;-21
2023/10/31 01:31:50;;;;;;;8.75;2.05;;;9.20;99.90;;;;;;5056704;28;20048;-20
2023/10/31 01:34:15;;;;;;;12.60;3.35;;;9.40;99.90;;;;;;5073683;28;20044;-21
2023/10/31 01:36:41;;;;;;;9.82;2.17;;;9.10;99.90;;;;;;5073620;28;20045;-21
2023/10/31 01:39:07;;;;;;;9.32;2.13;;;9.30;99.90;;;;;;5074140;28;20052;-21
2023/10/31 01:41:33;;;;;;;8.77;1.75;;;9.20;99.90;;;;;;5073628;28;20049;-20
2023/10/31 01:43:59;;;;;;;10.18;1.90;;;9.10;99.90;;;;;;5073525;28;20047;-21
2023/10/31 01:46:25;;;;;;;10.45;1.50;;;9.30;99.90;;;;;;5072313;28;20131;-21
2023/10/31 01:48:51;;;;;;;15.05;1.80;;;9.30;99.90;;;;;;5072649;28;20475;-21
2023/10/31 01:51:17;;;;;;;10.40;2.05;;;9.10;99.90;;;;;;5039290;28;20114;-20
2023/10/31 01:53:43;;;;;;;11.48;2.25;;;9.20;99.90;;;;;;5073527;28;20060;-20
2023/10/31 01:56:09;;;;;;;10.20;2.10;;;9.30;99.90;;;;;;5072347;28;20048;-21
2023/10/31 01:58:36;;;;;;;11.15;2.58;;;9.10;99.90;;;;;;5072274;28;20060;-21
2023/10/31 02:01:05;;;;;;;9.10;2.80;;;9.20;99.90;;;;;;5073753;28;20048;-21
2023/10/31 02:03:33;;;;;;;14.20;2.80;;;9.10;99.90;;;;;;5073096;28;20463;-21
2023/10/31 02:05:58;;;;;;;9.27;2.97;;;9.10;99.90;;;;;;5072231;28;20136;-21
2023/10/31 02:08:25;;;;;;;13.63;3.60;;;9.20;99.90;;;;;;5073248;28;20127;-22
2023/10/31 02:10:51;;;;;;;13.60;3.30;;;9.00;99.90;;;;;;5072423;28;20056;-22
2023/10/31 02:13:18;;;;;;;11.82;3.85;;;9.30;99.90;;;;;;5073422;28;20414;-22
2023/10/31 02:15:45;;;;;;;13.40;3.88;;;9.10;99.90;;;;;;5073252;28;20044;-22
2023/10/31 02:18:11;;;;;;;14.75;3.80;;;9.30;99.90;;;;;;5074094;28;20064;-21
2023/10/31 02:20:37;;;;;;;11.25;3.40;;;9.10;99.90;;;;;;5072112;28;20159;-21
2023/10/31 02:23:04;;;;;;;14.43;3.97;;;9.30;99.90;;;;;;5073194;28;20439;-21
2023/10/31 02:25:30;;;;;;;20.02;4.60;;;9.10;99.90;;;;;;5073176;28;20490;-21
2023/10/31 02:27:56;;;;;;;13.40;4.45;;;9.30;99.90;;;;;;5072020;28;20041;-21
2023/10/31 02:30:23;;;;;;;15.57;5.15;;;9.00;99.90;;;;;;5075568;28;20518;-20
2023/10/31 02:32:49;;;;;;;15.93;5.80;;;9.30;99.90;;;;;;5076857;28;20040;-21
2023/10/31 02:35:17;;;;;;;19.40;6.40;;;9.30;99.90;;;;;;5075932;28;20051;-20
2023/10/31 02:37:44;;;;;;;23.15;5.75;;;9.10;99.90;;;;;;5076833;28;20059;-20
2023/10/31 02:40:10;;;;;;;16.00;5.50;;;9.10;99.90;;;;;;5077314;28;20101;-20
2023/10/31 02:42:36;;;;;;;14.75;5.28;;;9.10;99.90;;;;;;5076770;28;20047;-20
2023/10/31 02:45:03;;;;;;;13.65;5.00;;;9.30;99.90;;;;;;5076722;28;20040;-20
2023/10/31 02:47:29;;;;;;;9.98;4.50;;;9.30;99.90;;;;;;5076669;28;20049;-21
2023/10/31 02:49:55;;;;;;;15.45;4.60;;;9.30;99.90;;;;;;5075639;28;20086;-20
2023/10/31 02:52:21;;;;;;;17.98;5.13;;;9.10;99.90;;;;;;5076719;28;20079;-20
2023/10/31 02:54:46;;;;;;;15.35;5.60;;;9.20;99.90;;;;;;5076455;28;20448;-21
2023/10/31 02:57:12;;;;;;;16.55;5.95;;;9.20;99.90;;;;;;5076457;28;20052;-20
2023/10/31 02:59:38;;;;;;;17.27;5.43;;;9.10;99.90;;;;;;5075857;28;20044;-20
2023/10/31 03:02:04;;;;;;;14.85;4.97;;;9.20;99.90;;;;;;5076404;28;20089;-21
2023/10/31 03:04:29;;;;;;;19.42;5.80;;;9.20;99.90;;;;;;5077151;28;20044;-20
2023/10/31 03:06:55;;;;;;;14.73;5.07;;;9.40;99.90;;;;;;5076201;28;20451;-20
2023/10/31 03:09:21;;;;;;;17.75;7.88;;;9.30;99.90;;;;;;5076305;28;20185;-20
2023/10/31 03:11:47;;;;;;;15.27;6.72;;;9.20;99.90;;;;;;5076698;28;20368;-20
2023/10/31 03:14:12;;;;;;;21.58;8.07;;;9.20;99.90;;;;;;5075743;28;20143;-20
2023/10/31 03:16:39;;;;;;;12.68;5.95;;;9.40;99.90;;;;;;5076141;28;20145;-20
2023/10/31 03:19:05;;;;;;;19.83;7.57;;;9.30;99.90;;;;;;5076082;28;20478;-20
2023/10/31 03:21:31;;;;;;;17.13;7.95;;;9.40;99.90;;;;;;5076067;28;20045;-20
2023/10/31 03:23:57;;;;;;;18.52;7.60;;;9.40;99.90;;;;;;5076040;28;20063;-19
2023/10/31 03:26:23;;;;;;;17.60;7.88;;;9.20;99.90;;;;;;5075631;28;20506;-20
2023/10/31 03:28:49;;;;;;;17.80;7.82;;;9.30;99.90;;;;;;5075768;28;20095;-19
2023/10/31 03:31:16;;;;;;;18.15;8.02;;;9.30;99.90;;;;;;5075810;28;20056;-19
2023/10/31 03:33:42;;;;;;;18.98;7.85;;;9.50;99.90;;;;;;5075815;28;20048;-20
2023/10/31 03:36:09;;;;;;;18.42;7.18;;;9.60;99.90;;;;;;5075087;28;20048;-19
2023/10/31 03:38:35;;;;;;;15.57;7.07;;;9.40;99.90;;;;;;5075752;28;20119;-19
2023/10/31 03:41:02;;;;;;;14.13;5.82;;;9.70;99.90;;;;;;5075112;28;20506;-20
2023/10/31 03:43:28;;;;;;;17.08;6.40;;;9.50;99.90;;;;;;5075666;28;20032;-20
2023/10/31 03:45:54;;;;;;;13.02;4.82;;;9.70;99.90;;;;;;5075249;28;20201;-20
2023/10/31 03:48:20;;;;;;;19.08;5.43;;;9.50;99.90;;;;;;5075575;28;20044;-20
2023/10/31 03:50:46;;;;;;;14.18;4.60;;;9.60;99.90;;;;;;5074234;28;20102;-20
2023/10/31 03:53:12;;;;;;;20.52;5.70;;;9.60;99.90;;;;;;5074479;28;20090;-20
2023/10/31 03:55:38;;;;;;;21.00;5.72;;;9.70;99.90;;;;;;5074201;28;20048;-19
2023/10/31 03:58:04;;;;;;;14.10;5.63;;;9.70;99.90;;;;;;5075295;28;20051;-19
2023/10/31 04:00:30;;;;;;;11.40;4.03;;;9.60;99.90;;;;;;5075357;28;20055;-19
2023/10/31 04:02:56;;;;;;;13.07;5.82;;;9.50;99.90;;;;;;5075250;28;20115;-20
2023/10/31 04:05:22;;;;;;;9.35;3.60;;;9.70;99.90;;;;;;5075229;28;20063;-20
2023/10/31 04:07:49;;;;;;;14.18;4.43;;;9.50;99.90;;;;;;5075085;28;20048;-20
2023/10/31 04:10:16;;;;;;;9.23;3.40;;;9.50;99.90;;;;;;5075073;28;20097;-20
2023/10/31 04:12:42;;;;;;;14.85;3.75;;;9.70;99.90;;;;;;5074805;28;20053;-21
2023/10/31 04:15:08;;;;;;;11.88;3.47;;;9.40;99.90;;;;;;5074981;28;20148;-20
2023/10/31 04:17:34;;;;;;;14.15;4.00;;;9.70;99.90;;;;;;5074943;28;20044;-20
2023/10/31 04:20:00;;;;;;;11.38;3.60;;;9.60;99.90;;;;;;5073775;28;20055;-20
2023/10/31 04:22:26;;;;;;;8.38;3.38;;;9.60;99.90;;;;;;5074837;28;20076;-20
2023/10/31 04:24:52;;;;;;;11.13;3.72;;;9.70;99.90;;;;;;5074841;28;20044;-19
2023/10/31 04:27:17;;;;;;;7.90;3.22;;;9.80;99.90;;;;;;5074746;28;20048;-19
2023/10/31 04:29:44;;;;;;;11.60;3.15;;;9.40;99.90;;;;;;5075030;28;20524;-19
2023/10/31 04:32:10;;;;;;;10.20;3.70;;;9.70;99.90;;;;;;5074876;28;20044;-19
2023/10/31 04:34:35;;;;;;;9.77;3.17;;;9.40;99.90;;;;;;5074633;28;20123;-19
2023/10/31 04:37:02;;;;;;;7.68;3.15;;;9.40;99.90;;;;;;5057018;28;20605;-20
2023/10/31 04:39:27;;;;;;;10.13;2.40;;;9.40;99.90;;;;;;5074547;28;20075;-19
2023/10/31 04:41:53;;;;;;;8.50;2.72;;;9.50;99.90;;;;;;5074446;28;20470;-19
2023/10/31 04:44:19;;;;;;;7.32;2.47;;;9.40;99.90;;;;;;5074443;28;20075;-19
2023/10/31 04:46:45;;;;;;;10.93;2.20;;;9.40;99.90;;;;;;5074381;28;20098;-20
2023/10/31 04:49:10;;;;;;;7.00;1.55;;;9.40;99.90;;;;;;5074914;28;20045;-20
2023/10/31 04:51:37;;;;;;;10.20;2.78;;;9.70;99.90;;;;;;5073724;28;20474;-19
2023/10/31 04:54:04;;;;;;;6.72;2.38;;;9.40;99.90;;;;;;5073947;28;20048;-20
2023/10/31 04:56:30;;;;;;;7.03;3.17;;;9.40;99.90;;;;;;5074475;28;20517;-20
2023/10/31 04:58:55;;;;;;;6.38;3.00;;;9.70;99.90;;;;;;5074198;28;20445;-20
2023/10/31 05:01:21;;;;;;;10.43;2.95;;;9.70;99.90;;;;;;5074130;28;20044;-20
2023/10/31 05:03:47;;;;;;;6.88;2.92;;;9.70;99.90;;;;;;5074103;28;20097;-20
2023/10/31 05:06:13;;;;;;;8.10;3.05;;;9.80;99.90;;;;;;5073896;28;20048;-21
2023/10/31 05:08:39;;;;;;;7.97;2.78;;;9.70;99.90;;;;;;5073397;28;20102;-20
2023/10/31 05:11:04;;;;;;;11.38;2.53;;;9.50;99.90;;;;;;5072812;28;20131;-20
2023/10/31 05:13:30;;;;;;;8.45;2.65;;;9.50;99.90;;;;;;5074426;28;20052;-20
2023/10/31 05:15:56;;;;;;;6.10;2.30;;;9.80;99.90;;;;;;5072796;28;20543;-20
2023/10/31 05:18:22;;;;;;;6.50;2.20;;;9.80;99.90;;;;;;5073662;28;20399;-19
2023/10/31 05:20:47;;;;;;;6.15;1.80;;;9.50;99.90;;;;;;5073908;28;20048;-19
2023/10/31 05:23:14;;;;;;;7.97;2.00;;;9.60;99.90;;;;;;5073803;28;20093;-19
2023/10/31 05:25:39;;;;;;;6.75;1.75;;;9.60;99.90;;;;;;5074320;28;20440;-19
2023/10/31 05:28:05;;;;;;;3.38;1.50;;;9.50;99.90;;;;;;5073717;28;20114;-19
2023/10/31 05:30:31;;;;;;;4.10;1.42;;;9.80;99.90;;;;;;5073686;28;20044;-19
2023/10/31 05:32:57;;;;;;;3.60;1.30;;;9.80;99.90;;;;;;5074176;28;20037;-18
2023/10/31 05:35:23;;;;;;;3.25;1.67;;;9.50;99.90;;;;;;5074251;28;20155;-19
2023/10/31 05:37:49;;;;;;;4.88;1.10;;;9.40;99.90;;;;;;5073961;28;20053;-18
2023/10/31 05:40:16;;;;;;;7.25;1.60;;;9.70;99.90;;;;;;5073633;28;20449;-18
2023/10/31 05:42:41;;;;;;;5.78;2.03;;;9.40;99.90;;;;;;5073965;28;20044;-19
2023/10/31 05:45:07;;;;;;;3.05;1.50;;;9.40;99.90;;;;;;5073627;28;20117;-19
2023/10/31 05:47:33;;;;;;;4.20;1.42;;;9.60;99.90;;;;;;5073853;28;20045;-19
2023/10/31 05:49:59;;;;;;;3.33;1.40;;;9.60;99.90;;;;;;5074157;28;20044;-19
2023/10/31 05:52:29;;;;;;;4.13;1.85;;;9.70;99.90;;;;;;5074058;28;20040;-19
2023/10/31 05:54:55;;;;;;;6.88;1.83;;;9.70;99.90;;;;;;5072526;28;20101;-19
2023/10/31 05:57:21;;;;;;;5.10;1.55;;;9.70;99.90;;;;;;5074331;28;20056;-19
2023/10/31 05:59:47;;;;;;;6.70;1.73;;;9.50;99.90;;;;;;5073444;28;20411;-19
2023/10/31 06:02:14;;;;;;;3.88;1.83;;;9.60;99.90;;;;;;5072490;28;20051;-20
2023/10/31 06:04:40;;;;;;;5.15;2.10;;;9.50;99.90;;;;;;5076212;28;20049;-20
2023/10/31 06:07:06;;;;;;;2.65;1.40;;;9.70;99.90;;;;;;5077373;28;20066;-20
2023/10/31 06:09:35;;;;;;;4.50;1.98;;;9.60;99.90;;;;;;5078028;28;20050;-20
2023/10/31 06:12:01;;;;;;;4.43;2.10;;;9.50;99.90;;;;;;5077319;28;20463;-20
2023/10/31 06:14:27;;;;;;;4.88;2.08;;;9.80;99.90;;;;;;5077152;28;20087;-20
2023/10/31 06:16:53;;;;;;;4.50;2.30;;;9.80;99.90;;;;;;5077764;28;20060;-20
2023/10/31 06:19:20;;;;;;;6.30;2.55;;;9.70;99.90;;;;;;5077852;28;20078;-21
2023/10/31 06:21:46;;;;;;;6.00;2.65;;;9.60;99.90;;;;;;5077196;28;20087;-21
2023/10/31 06:24:12;;;;;;;6.88;2.80;;;9.90;99.90;;;;;;5077151;28;20079;-21
2023/10/31 06:26:39;;;;;;;4.30;2.40;;;9.80;99.90;;;;;;5077129;28;20395;-21
2023/10/31 06:29:05;;;;;;;7.78;3.15;;;9.90;99.90;;;;;;5077017;28;20094;-22
2023/10/31 06:31:31;;;;;;;6.18;2.63;;;9.80;99.90;;;;;;5076505;28;20044;-21
2023/10/31 06:33:57;;;;;;;8.07;3.17;;;9.60;99.90;;;;;;5075768;28;20074;-21
2023/10/31 06:36:22;;;;;;;4.85;3.03;;;9.80;99.90;;;;;;5076809;28;20056;-21
2023/10/31 06:38:48;;;;;;;9.48;2.67;;;9.70;99.90;;;;;;5075911;28;20052;-21
2023/10/31 06:41:14;;;;;;;6.55;3.50;;;9.70;99.90;;;;;;5059222;28;20406;-21
2023/10/31 06:43:40;;;;;;;7.90;3.20;;;9.80;99.90;;;;;;5076800;28;20047;-21
2023/10/31 06:46:06;;;;;;;11.10;3.72;;;9.80;99.90;;;;;;5076338;28;20045;-21
2023/10/31 06:48:32;;;;;;;8.27;3.00;;;9.90;99.90;;;;;;5075769;28;20141;-21
2023/10/31 06:50:58;;;;;;;8.77;3.10;;;9.90;99.90;;;;;;5076637;28;20367;-21
2023/10/31 06:53:24;;;;;;;7.43;2.80;;;9.80;99.90;;;;;;5076535;28;20046;-21
2023/10/31 06:55:50;;;;;;;7.85;3.70;;;9.80;99.90;;;;;;5076569;28;20490;-21
2023/10/31 06:58:15;;;;;;;10.52;4.15;;;9.70;99.90;;;;;;5076441;28;20048;-21
2023/10/31 07:00:41;;;;;;;6.22;3.05;;;9.80;99.90;;;;;;5076685;28;20044;-21
2023/10/31 07:03:09;;;;;;;7.78;3.60;;;9.80;99.90;;;;;;5076366;28;20044;-21
2023/10/31 07:05:37;;;;;;;6.60;3.75;;;9.70;99.90;;;;;;5076393;28;20441;-21
2023/10/31 07:08:04;;;;;;;10.18;3.78;;;9.80;99.90;;;;;;5075111;28;20044;-21
2023/10/31 07:10:30;;;;;;;9.65;3.65;;;9.70;99.90;;;;;;5076290;28;20049;-21
2023/10/31 07:12:56;;;;;;;8.43;2.97;;;9.80;99.90;;;;;;5076003;28;20094;-21
2023/10/31 07:15:22;;;;;;;7.32;3.30;;;9.90;99.90;;;;;;5075876;28;20052;-21
2023/10/31 07:17:48;;;;;;;7.78;2.97;;;9.80;99.90;;;;;;5074939;28;20444;-21
2023/10/31 07:20:14;;;;;;;5.85;2.67;;;9.80;99.90;;;;;;5074973;28;20049;-21
2023/10/31 07:22:40;;;;;;;10.30;3.08;;;9.90;99.90;;;;;;5076334;28;20044;-21
2023/10/31 07:25:06;;;;;;;8.38;3.10;;;9.90;99.90;;;;;;5075984;28;20493;-21
2023/10/31 07:27:32;;;;;;;5.63;2.50;;;9.90;99.90;;;;;;5075627;28;20056;-21
2023/10/31 07:29:58;;;;;;;5.90;1.90;;;9.90;99.90;;;;;;5075026;28;20040;-21
2023/10/31 07:32:25;;;;;;;3.35;1.63;;;10.00;99.90;;;;;;5076604;28;20040;-21
2023/10/31 07:34:51;;;;;;;7.35;2.03;;;10.00;99.90;;;;;;5076058;28;20381;-21
2023/10/31 07:37:17;;;;;;;7.57;1.10;;;10.00;99.90;;;;;;5075787;28;20044;-21
2023/10/31 07:39:43;;;;;;;7.10;1.33;;;10.10;99.90;;;;;;5075721;28;20051;-21
2023/10/31 07:42:09;;;;;;;5.03;1.17;;;10.10;99.90;;;;;;5076222;28;20483;-21
2023/10/31 07:44:35;;;;;;;7.13;1.33;;;10.10;99.90;;;;;;5075694;28;20071;-21
2023/10/31 07:47:01;;;;;;;1.95;0.73;;;10.20;99.90;;;;;;5075650;28;20169;-21
2023/10/31 07:49:27;;;;;;;2.05;0.82;;;10.20;99.90;;;;;;5075644;28;20078;-21
2023/10/31 07:51:53;;;;;;;6.38;1.23;;;10.20;99.90;;;;;;5075429;28;20045;-21
2023/10/31 07:54:19;;;;;;;1.38;0.43;;;10.20;99.90;;;;;;5075447;28;20045;-20
2023/10/31 07:56:45;;;;;;;4.03;0.80;;;10.40;99.90;;;;;;5076016;28;20113;-21
2023/10/31 07:59:11;;;;;;;3.45;0.50;;;10.40;99.90;;;;;;5075303;28;20040;-20
2023/10/31 08:01:37;;;;;;;6.03;0.82;;;10.40;99.90;;;;;;5075632;28;20049;-21
2023/10/31 08:04:03;;;;;;;3.05;0.63;;;10.50;99.90;;;;;;5074386;28;20393;-20
2023/10/31 08:06:29;;;;;;;3.22;0.52;;;10.50;99.90;;;;;;5075667;28;20052;-20
2023/10/31 08:08:55;;;;;;;3.72;0.43;;;10.60;99.90;;;;;;5075188;28;20055;-20
2023/10/31 08:11:20;;;;;;;4.97;0.65;;;10.60;99.90;;;;;;5075065;28;20056;-21
2023/10/31 08:13:46;;;;;;;4.07;0.50;;;10.70;99.90;;;;;;5074801;28;20091;-21
2023/10/31 08:16:18;;;;;;;5.63;0.55;;;10.70;99.90;;;;;;5075853;28;20048;-21
2023/10/31 08:18:44;;;;;;;2.60;0.38;;;10.70;99.90;;;;;;5075061;28;20109;-20
2023/10/31 08:21:11;;;;;;;4.72;0.50;;;10.70;99.90;;;;;;5057190;28;20486;-20
2023/10/31 08:23:37;;;;;;;7.63;0.82;;;10.80;99.90;;;;;;5074905;28;20106;-20
2023/10/31 08:26:03;;;;;;;6.70;0.65;;;10.80;99.90;;;;;;5074741;28;20049;-20
2023/10/31 08:28:30;;;;;;;6.95;1.20;;;10.90;99.90;;;;;;5073844;28;20127;-20
2023/10/31 08:30:55;;;;;;;11.32;1.33;;;10.90;99.90;;;;;;5074739;28;20091;-20
2023/10/31 08:33:21;;;;;;;8.23;1.05;;;11.10;99.90;;;;;;5074855;28;20444;-20
2023/10/31 08:35:47;;;;;;;9.60;1.38;;;11.00;99.90;;;;;;5074675;28;20088;-20
2023/10/31 08:38:13;;;;;;;12.68;1.00;;;11.00;99.90;;;;;;5074901;28;20059;-20
2023/10/31 08:40:39;;;;;;;10.80;1.17;;;10.90;99.90;;;;;;5073589;28;20048;-20
2023/10/31 08:43:06;;;;;;;11.98;1.10;;;10.90;99.90;;;;;;5074469;28;20041;-20
2023/10/31 08:45:33;;;;;;;10.27;0.93;;;10.80;99.90;;;;;;5074481;28;20119;-20
2023/10/31 08:48:05;;;;;;;10.57;0.80;;;10.80;99.90;;;;;;5091882;27;20771;-21
2023/10/31 08:50:31;;;;;;;7.78;0.85;;;10.70;99.90;;;;;;5091230;28;20110;-21
2023/10/31 08:52:57;;;;;;;5.57;0.63;;;10.70;99.90;;;;;;5091999;28;20040;-21
2023/10/31 08:55:22;;;;;;;5.47;0.50;;;10.70;99.90;;;;;;5091091;28;20490;-21
2023/10/31 08:57:48;;;;;;;6.25;0.52;;;10.60;99.90;;;;;;5090762;28;20046;-21
2023/10/31 09:00:14;;;;;;;8.30;1.00;;;10.50;99.90;;;;;;5091025;28;20044;-21
2023/10/31 09:02:40;;;;;;;8.10;0.50;;;10.60;99.90;;;;;;5090369;28;20055;-21
2023/10/31 09:05:06;;;;;;;4.93;0.60;;;10.70;99.90;;;;;;5074013;28;20048;-21
2023/10/31 09:07:32;;;;;;;9.10;1.95;;;10.60;99.90;;;;;;5090762;28;20048;-22
2023/10/31 09:09:58;;;;;;;7.07;0.85;;;10.60;99.90;;;;;;5090861;28;20071;-21
2023/10/31 09:12:24;;;;;;;6.40;1.20;;;10.60;99.90;;;;;;5089709;28;20379;-21
2023/10/31 09:14:49;;;;;;;4.82;0.70;;;10.60;99.90;;;;;;5091064;28;20048;-22
2023/10/31 09:17:15;;;;;;;7.68;0.60;;;10.70;99.90;;;;;;5090703;28;20387;-22
2023/10/31 09:19:41;;;;;;;5.97;0.47;;;10.60;99.90;;;;;;5090683;28;20063;-22
2023/10/31 09:22:07;;;;;;;3.75;0.30;;;10.60;99.90;;;;;;5089442;28;20113;-22
2023/10/31 09:24:33;;;;;;;9.07;0.57;;;10.60;99.90;;;;;;5089886;28;20084;-22
2023/10/31 09:26:59;;;;;;;4.55;0.30;;;10.60;99.90;;;;;;5072572;28;20106;-22
2023/10/31 09:29:25;;;;;;;4.43;0.30;;;10.70;99.90;;;;;;5091315;28;20071;-22
2023/10/31 09:31:51;;;;;;;4.78;0.40;;;10.70;99.90;;;;;;5090391;28;20475;-22
2023/10/31 09:34:17;;;;;;;6.47;0.68;;;10.70;99.90;;;;;;5089421;28;20048;-21
2023/10/31 09:36:43;;;;;;;8.05;0.77;;;10.90;99.90;;;;;;5090314;28;20132;-21
2023/10/31 09:39:09;;;;;;;7.55;0.93;;;11.20;99.90;;;;;;5091157;28;20080;-21
2023/10/31 09:41:36;;;;;;;8.90;1.15;;;11.40;99.90;;;;;;5090284;28;20398;-21
2023/10/31 09:44:02;;;;;;;10.57;0.85;;;11.30;99.90;;;;;;5090180;28;20047;-22
2023/10/31 09:46:31;;;;;;;5.32;0.65;;;11.20;99.90;;;;;;5071632;28;20052;-22
2023/10/31 09:48:57;;;;;;;7.38;0.80;;;11.10;99.90;;;;;;5090386;28;20113;-22
2023/10/31 09:51:23;;;;;;;3.47;0.82;;;11.30;99.90;;;;;;5088846;28;20048;-22
2023/10/31 09:53:53;;;;;;;7.05;0.90;;;11.30;99.90;;;;;;5090021;28;20551;-22
2023/10/31 09:56:20;;;;;;;9.40;0.70;;;11.20;99.90;;;;;;5090832;28;20036;-22
2023/10/31 09:58:50;;;;;;;6.60;0.30;;;11.40;99.90;;;;;;5080325;28;20049;-22
2023/10/31 10:01:15;;;;;;;7.00;0.60;;;11.50;99.90;;;;;;5076380;28;20086;-22
2023/10/31 10:03:43;;;;;;;4.65;0.45;;;11.40;99.90;;;;;;5075712;28;20110;-23
2023/10/31 10:06:10;;;;;;;6.47;1.20;;;11.30;99.90;;;;;;5076487;28;20037;-23
2023/10/31 10:08:39;;;;;;;3.83;0.40;;;11.40;99.90;;;;;;5076129;28;20049;-23
2023/10/31 10:11:05;;;;;;;4.10;0.93;;;11.50;99.90;;;;;;5075058;28;20503;-23
2023/10/31 10:13:31;;;;;;;6.70;0.88;;;11.60;99.90;;;;;;5076152;28;20044;-23
2023/10/31 10:15:57;;;;;;;6.93;1.05;;;11.90;99.90;;;;;;5076394;28;20044;-23
2023/10/31 10:18:34;;;;;;;5.18;0.75;;;12.00;99.90;;;;;;5076099;28;20124;-24
2023/10/31 10:21:02;;;;;;;6.72;0.73;;;12.10;99.90;;;;;;5075082;28;20056;-23
2023/10/31 10:23:28;;;;;;;5.95;0.50;;;12.00;99.90;;;;;;5074878;28;20135;-24
2023/10/31 10:25:56;;;;;;;5.30;0.52;;;11.80;99.90;;;;;;5041434;28;20044;-24
2023/10/31 10:28:22;;;;;;;6.55;0.47;;;11.60;99.90;;;;;;5076453;28;20440;-24
2023/10/31 10:30:48;;;;;;;6.10;0.80;;;11.60;99.90;;;;;;5075875;28;20059;-24
2023/10/31 10:33:15;;;;;;;5.40;0.93;;;11.60;99.90;;;;;;5075432;28;20052;-24
2023/10/31 10:35:42;;;;;;;5.32;0.68;;;11.70;99.90;;;;;;5058966;28;20049;-24
2023/10/31 10:38:12;;;;;;;6.40;0.63;;;11.80;99.90;;;;;;5075797;28;20074;-24
2023/10/31 10:40:43;;;;;;;5.82;0.90;;;11.90;99.90;;;;;;5075965;28;20044;-25
2023/10/31 10:43:18;;;;;;;7.05;0.80;;;12.00;99.90;;;;;;5076480;28;20044;-25
2023/10/31 10:45:44;;;;;;;5.57;0.70;;;12.20;99.90;;;;;;5075249;28;20097;-25
2023/10/31 10:48:16;;;;;;;7.00;0.60;;;12.40;99.90;;;;;;5076113;28;20406;-25
2023/10/31 10:50:45;;;;;;;6.57;0.60;;;12.30;99.90;;;;;;5057873;28;20048;-25
2023/10/31 10:53:22;;;;;;;5.72;0.38;;;12.30;99.90;;;;;;5075410;28;20049;-26
2023/10/31 10:55:52;;;;;;;9.32;0.57;;;12.50;99.90;;;;;;5058950;28;20553;-26
2023/10/31 10:58:44;;;;;;;5.32;0.85;;;12.60;99.90;;;;;;5063343;28;20059;-26
2023/10/31 11:01:10;;;;;;;5.00;0.50;;;12.70;99.90;;;;;;5055178;28;20041;-26
2023/10/31 11:03:37;;;;;;;4.65;0.50;;;12.80;99.90;;;;;;5066570;28;20041;-26
2023/10/31 11:06:04;;;;;;;3.60;0.57;;;12.90;99.90;;;;;;5055611;28;20048;-26
2023/10/31 11:08:32;;;;;;;6.68;0.70;;;12.90;99.90;;;;;;5055039;28;20087;-27
2023/10/31 11:10:58;;;;;;;3.28;0.50;;;13.00;99.90;;;;;;5036376;28;20055;-26
2023/10/31 11:13:24;;;;;;;5.97;0.85;;;13.10;99.90;;;;;;5055027;28;20127;-27
2023/10/31 11:15:59;;;;;;;5.20;0.85;;;13.10;99.90;;;;;;5037340;28;20049;-27
2023/10/31 11:18:26;;;;;;;6.95;0.93;;;13.20;99.90;;;;;;5055626;28;20056;-28
2023/10/31 11:20:52;;;;;;;3.88;0.80;;;13.10;99.90;;;;;;5054849;28;20502;-27
2023/10/31 11:23:17;;;;;;;7.75;0.60;;;13.00;99.90;;;;;;5037282;28;20057;-27
2023/10/31 11:25:44;;;;;;;7.35;0.82;;;12.70;99.90;;;;;;5054756;28;20047;-27
2023/10/31 11:28:17;;;;;;;4.45;0.65;;;12.50;99.90;;;;;;5054737;28;20088;-28
2023/10/31 11:30:45;;;;;;;4.93;0.60;;;12.40;99.90;;;;;;5054708;28;20059;-28
2023/10/31 11:33:15;;;;;;;6.72;0.90;;;12.60;99.90;;;;;;5054643;28;20049;-27
2023/10/31 11:35:44;;;;;;;8.18;0.95;;;12.70;99.90;;;;;;5053689;28;20118;-28
2023/10/31 11:38:11;;;;;;;6.78;0.70;;;12.70;99.90;;;;;;5054391;28;20056;-28
2023/10/31 11:40:44;;;;;;;7.25;0.90;;;12.70;99.90;;;;;;5054507;28;20107;-28
2023/10/31 11:43:11;;;;;;;8.65;1.10;;;12.70;99.90;;;;;;5055360;28;20049;-29
2023/10/31 11:45:47;;;;;;;11.13;0.88;;;12.70;99.90;;;;;;5054670;28;20052;-30
2023/10/31 11:48:13;;;;;;;7.65;0.65;;;12.70;99.90;;;;;;5054791;28;20057;-28
2023/10/31 11:50:40;;;;;;;7.18;0.50;;;12.50;99.90;;;;;;5054302;28;20049;-28
2023/10/31 11:53:13;;;;;;;5.70;1.02;;;12.50;99.90;;;;;;5054289;28;20132;-28
2023/10/31 11:55:43;;;;;;;6.43;0.93;;;12.10;99.90;;;;;;5054544;28;20048;-29
2023/10/31 11:58:24;;;;;;;10.27;1.05;;;11.90;99.90;;;;;;5054226;28;20095;-29
2023/10/31 12:00:53;;;;;;;5.15;0.60;;;11.80;99.90;;;;;;5054127;28;20107;-29
2023/10/31 12:03:20;;;;;;;6.32;0.77;;;11.70;99.90;;;;;;5054940;28;20504;-30
2023/10/31 12:05:53;;;;;;;9.45;0.65;;;11.70;99.90;;;;;;5053994;28;20045;-30
2023/10/31 12:08:30;;;;;;;7.47;0.75;;;11.60;99.90;;;;;;5053924;28;20120;-30
2023/10/31 12:11:11;;;;;;;7.28;0.80;;;11.60;99.90;;;;;;5054821;28;20087;-30
2023/10/31 12:13:42;;;;;;;5.00;0.65;;;11.50;99.90;;;;;;5054308;28;20045;-31
2023/10/31 12:16:10;;;;;;;7.35;0.65;;;11.30;99.90;;;;;;5053996;28;20048;-30
2023/10/31 12:18:38;;;;;;;5.90;0.95;;;11.30;99.90;;;;;;5053895;28;20045;-31
2023/10/31 12:21:07;;;;;;;7.15;0.60;;;11.20;99.90;;;;;;5052943;28;20142;-31
2023/10/31 12:23:33;;;;;;;10.27;1.00;;;11.20;99.90;;;;;;5053794;28;20132;-31
2023/10/31 12:25:59;;;;;;;9.13;1.30;;;11.10;99.90;;;;;;5053713;28;20141;-31
2023/10/31 12:28:27;;;;;;;7.35;1.75;;;11.00;99.90;;;;;;5054286;28;20435;-31
2023/10/31 12:30:54;;;;;;;8.43;1.48;;;11.00;99.90;;;;;;5053760;28;20162;-30
2023/10/31 12:33:21;;;;;;;9.18;1.00;;;10.80;99.90;;;;;;5053657;28;20494;-31
2023/10/31 12:35:49;;;;;;;10.25;1.00;;;10.80;99.90;;;;;;5053638;28;20548;-32
2023/10/31 12:38:16;;;;;;;7.70;0.90;;;10.80;99.90;;;;;;5053614;28;20403;-31
2023/10/31 12:40:44;;;;;;;8.57;0.85;;;10.80;99.90;;;;;;5036050;28;20079;-31
2023/10/31 12:43:10;;;;;;;7.30;1.30;;;10.70;99.90;;;;;;5054338;28;20055;-31
2023/10/31 12:45:36;;;;;;;7.78;0.88;;;10.60;99.90;;;;;;5053536;28;20037;-31
2023/10/31 12:48:04;;;;;;;9.70;1.05;;;10.60;99.90;;;;;;5053240;28;20100;-31